createdAt,value
2023-01-03T00:00:46.308Z,82
2023-01-03T00:01:52.811Z,81
2023-01-03T00:02:59.919Z,81
2023-01-03T00:04:07.111Z,81
2023-01-03T00:05:14.064Z,81
2023-01-03T00:06:20.698Z,81
2023-01-03T00:07:27.812Z,81
2023-01-03T00:08:34.937Z,81
2023-01-03T00:09:41.974Z,81
2023-01-03T00:10:49.113Z,81
2023-01-03T00:11:56.353Z,81
2023-01-03T00:13:02.786Z,81
2023-01-03T00:14:09.966Z,80
2023-01-03T00:15:17.002Z,80
2023-01-03T00:16:24.137Z,80
2023-01-03T00:17:31.233Z,80
2023-01-03T00:18:37.858Z,80
2023-01-03T00:19:44.964Z,80
2023-01-03T00:20:51.997Z,80
2023-01-03T00:21:59.164Z,80
2023-01-03T00:23:05.743Z,80
2023-01-03T00:24:12.783Z,80
2023-01-03T00:25:19.932Z,80
2023-01-03T00:26:27.042Z,80
2023-01-03T00:27:34.105Z,79
2023-01-03T00:28:41.290Z,79
2023-01-03T00:29:47.839Z,79
2023-01-03T00:30:55.098Z,79
2023-01-03T00:32:02.037Z,79
2023-01-03T00:33:09.159Z,79
2023-01-03T00:34:16.314Z,79
2023-01-03T00:35:22.817Z,79
2023-01-03T00:36:29.984Z,79
2023-01-03T00:37:37.069Z,79
2023-01-03T00:38:44.084Z,79
2023-01-03T00:39:50.707Z,79
2023-01-03T00:40:57.814Z,79
2023-01-03T00:43:11.991Z,79
2023-01-03T00:44:19.177Z,79
2023-01-03T00:45:28.099Z,79
2023-01-03T00:46:32.899Z,79
2023-01-03T00:47:40.020Z,79
2023-01-03T00:48:47.078Z,79
2023-01-03T00:49:54.169Z,79
2023-01-03T00:51:01.268Z,79
2023-01-03T00:52:07.904Z,79
2023-01-03T00:53:14.956Z,79
2023-01-03T00:55:29.153Z,79
2023-01-03T00:56:36.305Z,79
2023-01-03T00:57:42.843Z,79
2023-01-03T00:58:50.077Z,79
2023-01-03T00:59:57.066Z,79
2023-01-03T01:01:04.159Z,79
2023-01-03T01:02:11.560Z,78
2023-01-03T01:03:18.302Z,78
2023-01-03T01:04:24.973Z,78
2023-01-03T01:05:32.143Z,78
2023-01-03T01:06:39.253Z,78
2023-01-03T01:07:46.278Z,78
2023-01-03T01:08:52.844Z,78
2023-01-03T01:09:59.976Z,78
2023-01-03T01:11:07.081Z,78
2023-01-03T01:12:14.215Z,78
2023-01-03T01:13:20.731Z,78
2023-01-03T01:14:27.879Z,78
2023-01-03T01:15:35.003Z,78
2023-01-03T01:16:42.113Z,78
2023-01-03T01:17:49.218Z,78
2023-01-03T01:18:55.780Z,77
2023-01-03T01:20:02.876Z,77
2023-01-03T01:21:10.091Z,77
2023-01-03T01:22:17.172Z,77
2023-01-03T01:23:24.185Z,77
2023-01-03T01:24:30.781Z,77
2023-01-03T01:25:37.915Z,77
2023-01-03T01:26:45.019Z,77
2023-01-03T01:27:52.080Z,77
2023-01-03T01:28:58.713Z,77
2023-01-03T01:30:06.331Z,77
2023-01-03T01:31:12.897Z,77
2023-01-03T01:32:20.085Z,77
2023-01-03T01:33:27.089Z,77
2023-01-03T01:34:34.187Z,77
2023-01-03T01:35:40.933Z,77
2023-01-03T01:36:49.219Z,77
2023-01-03T01:37:54.996Z,77
2023-01-03T01:39:02.089Z,77
2023-01-03T01:40:09.272Z,78
2023-01-03T01:41:15.836Z,78
2023-01-03T01:42:27.390Z,78
2023-01-03T01:43:30.033Z,78
2023-01-03T01:44:37.141Z,78
2023-01-03T01:45:44.197Z,78
2023-01-03T01:46:50.931Z,78
2023-01-03T01:47:57.914Z,78
2023-01-03T01:49:05.040Z,78
2023-01-03T01:50:12.159Z,78
2023-01-03T01:51:19.269Z,78
2023-01-03T01:52:25.887Z,78
2023-01-03T01:53:32.926Z,78
2023-01-03T01:54:40.089Z,78
2023-01-03T01:55:47.170Z,78
2023-01-03T01:56:54.257Z,78
2023-01-03T01:58:00.815Z,78
2023-01-03T01:59:08.027Z,78
2023-01-03T02:00:15.044Z,78
2023-01-03T02:01:22.193Z,78
2023-01-03T02:02:29.622Z,79
2023-01-03T02:03:35.837Z,79
2023-01-03T02:04:43.454Z,79
2023-01-03T02:05:50.029Z,79
2023-01-03T02:06:57.229Z,79
2023-01-03T02:08:04.267Z,79
2023-01-03T02:09:10.862Z,79
2023-01-03T02:10:17.931Z,79
2023-01-03T02:11:25.071Z,79
2023-01-03T02:12:32.210Z,79
2023-01-03T02:13:39.317Z,79
2023-01-03T02:14:45.892Z,79
2023-01-03T02:15:52.970Z,79
2023-01-03T02:17:00.153Z,79
2023-01-03T02:18:07.184Z,79
2023-01-03T02:19:14.225Z,79
2023-01-03T02:20:20.841Z,79
2023-01-03T02:21:27.996Z,79
2023-01-03T02:23:42.236Z,79
2023-01-03T02:24:49.279Z,79
2023-01-03T02:25:55.885Z,79
2023-01-03T02:27:02.977Z,79
2023-01-03T02:28:10.080Z,79
2023-01-03T02:29:17.215Z,79
2023-01-03T02:30:24.310Z,79
2023-01-03T02:31:30.980Z,79
2023-01-03T02:32:38.012Z,79
2023-01-03T02:33:45.092Z,79
2023-01-03T02:34:52.195Z,79
2023-01-03T02:35:59.313Z,79
2023-01-03T02:37:05.949Z,79
2023-01-03T02:38:12.968Z,79
2023-01-03T02:39:23.676Z,79
2023-01-03T02:40:27.256Z,79
2023-01-03T02:41:34.319Z,79
2023-01-03T02:42:40.991Z,79
2023-01-03T02:43:48.022Z,79
2023-01-03T02:44:55.093Z,79
2023-01-03T02:46:02.254Z,79
2023-01-03T02:47:08.876Z,79
2023-01-03T02:48:15.924Z,79
2023-01-03T02:49:22.982Z,79
2023-01-03T02:50:30.162Z,79
2023-01-03T02:51:36.670Z,79
2023-01-03T02:52:43.806Z,79
2023-01-03T02:53:50.913Z,79
2023-01-03T02:54:57.994Z,79
2023-01-03T02:56:05.067Z,79
2023-01-03T02:57:12.214Z,79
2023-01-03T02:58:18.785Z,80
2023-01-03T02:59:25.917Z,80
2023-01-03T03:00:33.021Z,79
2023-01-03T03:01:40.275Z,79
2023-01-03T03:02:47.436Z,79
2023-01-03T03:03:54.409Z,79
2023-01-03T03:05:00.895Z,79
2023-01-03T03:06:08.034Z,80
2023-01-03T03:07:15.096Z,79
2023-01-03T03:09:28.864Z,80
2023-01-03T03:10:35.950Z,80
2023-01-03T03:11:43.152Z,80
2023-01-03T03:12:50.166Z,80
2023-01-03T03:13:57.209Z,80
2023-01-03T03:15:04.344Z,80
2023-01-03T03:16:11.053Z,80
2023-01-03T03:17:18.082Z,80
2023-01-03T03:18:25.125Z,80
2023-01-03T03:19:32.200Z,80
2023-01-03T03:20:38.909Z,80
2023-01-03T03:21:45.969Z,80
2023-01-03T03:22:53.230Z,80
2023-01-03T03:24:00.123Z,80
2023-01-03T03:25:07.258Z,80
2023-01-03T03:26:13.936Z,80
2023-01-03T03:27:20.976Z,80
2023-01-03T03:28:28.076Z,80
2023-01-03T03:29:35.142Z,80
2023-01-03T03:30:42.241Z,80
2023-01-03T03:31:48.949Z,80
2023-01-03T03:32:55.982Z,79
2023-01-03T03:34:03.044Z,80
2023-01-03T03:35:10.176Z,80
2023-01-03T03:36:17.272Z,79
2023-01-03T03:37:23.811Z,79
2023-01-03T03:38:31.062Z,79
2023-01-03T03:39:38.081Z,79
2023-01-03T03:40:45.119Z,80
2023-01-03T03:41:52.289Z,80
2023-01-03T03:42:58.891Z,79
2023-01-03T03:44:05.978Z,79
2023-01-03T03:45:13.033Z,79
2023-01-03T03:46:20.239Z,79
2023-01-03T03:47:27.377Z,79
2023-01-03T03:48:33.962Z,79
2023-01-03T03:49:41.024Z,79
2023-01-03T03:51:55.238Z,79
2023-01-03T03:53:02.276Z,79
2023-01-03T03:54:08.963Z,79
2023-01-03T03:55:16.046Z,79
2023-01-03T03:56:23.035Z,79
2023-01-03T03:57:30.272Z,79
2023-01-03T03:58:37.311Z,79
2023-01-03T03:59:44.013Z,79
2023-01-03T04:00:50.996Z,79
2023-01-03T04:01:58.293Z,79
2023-01-03T04:03:05.355Z,79
2023-01-03T04:04:12.299Z,79
2023-01-03T04:05:18.921Z,79
2023-01-03T04:06:26.049Z,79
2023-01-03T04:07:33.120Z,78
2023-01-03T04:08:40.207Z,78
2023-01-03T04:09:47.405Z,78
2023-01-03T04:10:53.874Z,78
2023-01-03T04:13:08.199Z,78
2023-01-03T04:14:14.643Z,78
2023-01-03T04:15:22.304Z,78
2023-01-03T04:16:28.947Z,78
2023-01-03T04:17:36.046Z,78
2023-01-03T04:18:43.069Z,78
2023-01-03T04:19:50.199Z,78
2023-01-03T04:20:57.368Z,78
2023-01-03T04:22:03.954Z,78
2023-01-03T04:23:11.002Z,78
2023-01-03T04:24:18.104Z,78
2023-01-03T04:25:25.279Z,78
2023-01-03T04:26:32.341Z,78
2023-01-03T04:27:38.961Z,78
2023-01-03T04:28:46.063Z,78
2023-01-03T04:29:53.138Z,78
2023-01-03T04:31:00.256Z,78
2023-01-03T04:32:07.499Z,78
2023-01-03T04:33:13.881Z,78
2023-01-03T04:34:21.054Z,78
2023-01-03T04:35:28.147Z,78
2023-01-03T04:36:35.228Z,78
2023-01-03T04:37:42.340Z,77
2023-01-03T04:38:48.975Z,77
2023-01-03T04:39:55.991Z,77
2023-01-03T04:41:03.194Z,77
2023-01-03T04:42:10.327Z,77
2023-01-03T04:43:17.352Z,77
2023-01-03T04:44:23.972Z,77
2023-01-03T04:45:31.155Z,77
2023-01-03T04:46:38.190Z,77
2023-01-03T04:47:45.356Z,77
2023-01-03T04:48:51.909Z,77
2023-01-03T04:49:58.974Z,77
2023-01-03T04:51:06.044Z,77
2023-01-03T04:52:13.196Z,77
2023-01-03T04:53:20.302Z,77
2023-01-03T04:54:26.896Z,77
2023-01-03T04:55:33.967Z,77
2023-01-03T04:56:41.151Z,77
2023-01-03T04:57:48.247Z,77
2023-01-03T04:58:55.321Z,77
2023-01-03T05:00:02.349Z,77
2023-01-03T05:01:09.126Z,77
2023-01-03T05:02:16.356Z,77
2023-01-03T05:03:27.778Z,76
2023-01-03T05:04:30.386Z,76
2023-01-03T05:05:36.899Z,76
2023-01-03T05:06:44.014Z,76
2023-01-03T05:07:51.111Z,76
2023-01-03T05:08:58.381Z,76
2023-01-03T05:10:05.272Z,76
2023-01-03T05:11:11.909Z,76
2023-01-03T05:12:19.005Z,76
2023-01-03T05:13:26.069Z,76
2023-01-03T05:14:33.258Z,76
2023-01-03T05:16:49.231Z,76
2023-01-03T05:17:53.996Z,76
2023-01-03T05:20:08.303Z,76
2023-01-03T05:21:15.267Z,76
2023-01-03T05:22:22.420Z,76
2023-01-03T05:23:28.987Z,76
2023-01-03T05:24:36.220Z,76
2023-01-03T05:25:43.275Z,76
2023-01-03T05:26:50.314Z,76
2023-01-03T05:27:56.913Z,76
2023-01-03T05:29:04.010Z,76
2023-01-03T05:30:11.127Z,76
2023-01-03T05:31:18.357Z,76
2023-01-03T05:32:25.310Z,76
2023-01-03T05:33:31.972Z,76
2023-01-03T05:34:39.043Z,76
2023-01-03T05:35:46.113Z,76
2023-01-03T05:36:52.751Z,76
2023-01-03T05:38:00.309Z,76
2023-01-03T05:39:06.928Z,76
2023-01-03T05:40:14.007Z,76
2023-01-03T05:41:21.151Z,76
2023-01-03T05:42:28.260Z,76
2023-01-03T05:43:35.303Z,76
2023-01-03T05:44:41.941Z,76
2023-01-03T05:45:49.121Z,76
2023-01-03T05:46:56.141Z,76
2023-01-03T05:48:03.252Z,76
2023-01-03T05:49:10.308Z,76
2023-01-03T05:50:16.929Z,75
2023-01-03T05:51:24.004Z,75
2023-01-03T05:52:31.206Z,75
2023-01-03T05:53:38.265Z,75
2023-01-03T05:54:45.340Z,75
2023-01-03T05:55:51.959Z,75
2023-01-03T05:56:59.080Z,75
2023-01-03T05:58:06.189Z,75
2023-01-03T05:59:13.236Z,75
2023-01-03T06:00:20.342Z,75
2023-01-03T06:01:26.999Z,74
2023-01-03T06:02:34.083Z,74
2023-01-03T06:03:41.152Z,74
2023-01-03T06:04:48.372Z,74
2023-01-03T06:05:55.316Z,74
2023-01-03T06:07:02.004Z,74
2023-01-03T06:08:09.088Z,74
2023-01-03T06:09:16.231Z,74
2023-01-03T06:10:23.218Z,74
2023-01-03T06:11:30.368Z,74
2023-01-03T06:12:37.000Z,74
2023-01-03T06:13:44.056Z,74
2023-01-03T06:14:51.199Z,74
2023-01-03T06:15:58.284Z,74
2023-01-03T06:17:05.011Z,74
2023-01-03T06:18:11.990Z,74
2023-01-03T06:20:26.199Z,74
2023-01-03T06:21:33.279Z,74
2023-01-03T06:22:40.234Z,74
2023-01-03T06:23:46.983Z,74
2023-01-03T06:24:54.094Z,74
2023-01-03T06:26:01.188Z,74
2023-01-03T06:27:08.365Z,74
2023-01-03T06:28:14.857Z,74
2023-01-03T06:29:22.002Z,74
2023-01-03T06:30:29.208Z,74
2023-01-03T06:31:36.202Z,74
2023-01-03T06:32:43.357Z,75
2023-01-03T06:33:50.376Z,74
2023-01-03T06:34:57.005Z,75
2023-01-03T06:36:04.074Z,75
2023-01-03T06:37:11.203Z,75
2023-01-03T06:38:18.353Z,75
2023-01-03T06:39:24.856Z,75
2023-01-03T06:40:38.081Z,75
2023-01-03T06:41:39.127Z,75
2023-01-03T06:42:46.266Z,75
2023-01-03T06:43:53.290Z,75
2023-01-03T06:44:59.973Z,75
2023-01-03T06:46:07.092Z,75
2023-01-03T06:48:21.275Z,75
2023-01-03T06:49:28.330Z,75
2023-01-03T06:50:34.888Z,75
2023-01-03T06:51:42.014Z,75
2023-01-03T06:52:49.121Z,75
2023-01-03T06:53:56.278Z,75
2023-01-03T06:55:03.326Z,75
2023-01-03T06:56:10.575Z,75
2023-01-03T06:57:25.667Z,75
2023-01-03T06:58:24.131Z,75
2023-01-03T07:00:38.384Z,76
2023-01-03T07:01:45.070Z,76
2023-01-03T07:02:52.198Z,76
2023-01-03T07:03:59.203Z,76
2023-01-03T07:05:06.236Z,76
2023-01-03T07:06:13.356Z,76
2023-01-03T07:07:20.049Z,76
2023-01-03T07:08:27.018Z,76
2023-01-03T07:09:34.113Z,76
2023-01-03T07:10:41.224Z,76
2023-01-03T07:11:48.339Z,76
2023-01-03T07:12:54.984Z,76
2023-01-03T07:14:02.013Z,76
2023-01-03T07:15:09.134Z,76
2023-01-03T07:16:16.363Z,76
2023-01-03T07:17:23.444Z,76
2023-01-03T07:18:29.993Z,76
2023-01-03T07:19:37.094Z,76
2023-01-03T07:20:44.147Z,76
2023-01-03T07:21:51.258Z,76
2023-01-03T07:24:05.013Z,76
2023-01-03T07:25:12.032Z,76
2023-01-03T07:26:19.177Z,76
2023-01-03T07:27:26.303Z,76
2023-01-03T07:28:33.365Z,76
2023-01-03T07:29:40.020Z,76
2023-01-03T07:30:47.174Z,76
2023-01-03T07:31:54.220Z,76
2023-01-03T07:33:01.302Z,76
2023-01-03T07:34:08.403Z,76
2023-01-03T07:35:15.017Z,76
2023-01-03T07:36:22.056Z,75
2023-01-03T07:37:29.263Z,75
2023-01-03T07:38:36.313Z,75
2023-01-03T07:39:43.343Z,75
2023-01-03T07:41:57.117Z,75
2023-01-03T07:43:04.195Z,75
2023-01-03T07:44:11.352Z,75
2023-01-03T07:45:18.429Z,75
2023-01-03T07:46:25.114Z,75
2023-01-03T07:47:32.131Z,75
2023-01-03T07:48:39.215Z,75
2023-01-03T07:49:46.341Z,75
2023-01-03T07:50:53.415Z,75
2023-01-03T07:52:00.043Z,75
2023-01-03T07:53:07.176Z,75
2023-01-03T07:54:14.155Z,76
2023-01-03T07:55:21.375Z,76
2023-01-03T07:56:28.391Z,76
2023-01-03T07:57:35.060Z,76
2023-01-03T07:58:42.095Z,76
2023-01-03T07:59:49.244Z,76
2023-01-03T08:00:56.329Z,76
2023-01-03T08:02:03.033Z,76
2023-01-03T08:03:11.396Z,76
2023-01-03T08:04:17.215Z,76
2023-01-03T08:05:24.216Z,76
2023-01-03T08:06:31.342Z,76
2023-01-03T08:07:38.466Z,76
2023-01-03T08:08:45.004Z,76
2023-01-03T08:09:52.105Z,76
2023-01-03T08:10:59.234Z,76
2023-01-03T08:12:06.369Z,76
2023-01-03T08:13:12.955Z,77
2023-01-03T08:14:25.324Z,77
2023-01-03T08:16:34.318Z,77
2023-01-03T08:17:41.455Z,77
2023-01-03T08:18:47.918Z,77
2023-01-03T08:19:54.991Z,77
2023-01-03T08:21:02.133Z,77
2023-01-03T08:23:16.383Z,78
2023-01-03T08:24:22.919Z,78
2023-01-03T08:25:30.031Z,78
2023-01-03T08:27:48.279Z,78
2023-01-03T08:28:51.388Z,78
2023-01-03T08:29:58.449Z,78
2023-01-03T08:31:05.108Z,78
2023-01-03T08:32:12.100Z,78
2023-01-03T08:33:19.295Z,78
2023-01-03T08:34:29.737Z,78
2023-01-03T08:35:32.966Z,78
2023-01-03T08:36:40.039Z,78
2023-01-03T08:37:47.208Z,78
2023-01-03T08:38:54.271Z,78
2023-01-03T08:40:01.489Z,78
2023-01-03T08:41:08.015Z,78
2023-01-03T08:42:17.474Z,78
2023-01-03T08:43:22.152Z,78
2023-01-03T08:44:29.308Z,78
2023-01-03T08:45:36.552Z,78
2023-01-03T08:46:43.064Z,78
2023-01-03T08:47:50.416Z,78
2023-01-03T08:48:57.230Z,78
2023-01-03T08:50:04.299Z,78
2023-01-03T08:51:11.379Z,78
2023-01-03T08:52:18.555Z,78
2023-01-03T08:53:25.065Z,78
2023-01-03T08:54:32.606Z,78
2023-01-03T08:55:39.368Z,78
2023-01-03T08:56:46.414Z,78
2023-01-03T08:57:52.934Z,78
2023-01-03T08:59:00.095Z,78
2023-01-03T09:00:07.228Z,77
2023-01-03T09:01:14.525Z,77
2023-01-03T09:02:21.728Z,77
2023-01-03T09:04:35.095Z,77
2023-01-03T09:05:42.194Z,77
2023-01-03T09:06:49.325Z,77
2023-01-03T09:07:56.415Z,77
2023-01-03T09:09:02.981Z,77
2023-01-03T09:10:10.166Z,77
2023-01-03T09:11:17.200Z,77
2023-01-03T09:12:24.348Z,77
2023-01-03T09:13:31.423Z,77
2023-01-03T09:14:38.524Z,77
2023-01-03T09:15:45.177Z,77
2023-01-03T09:16:52.240Z,77
2023-01-03T09:17:59.363Z,77
2023-01-03T09:19:06.433Z,77
2023-01-03T09:20:12.982Z,77
2023-01-03T09:21:20.135Z,77
2023-01-03T09:22:27.365Z,77
2023-01-03T09:23:36.092Z,77
2023-01-03T09:24:41.454Z,77
2023-01-03T09:25:48.057Z,77
2023-01-03T09:26:55.313Z,78
2023-01-03T09:28:02.239Z,77
2023-01-03T09:29:09.366Z,77
2023-01-03T09:31:23.045Z,77
2023-01-03T09:32:30.204Z,78
2023-01-03T09:33:37.247Z,78
2023-01-03T09:34:44.317Z,78
2023-01-03T09:35:51.414Z,78
2023-01-03T09:36:58.014Z,78
2023-01-03T09:38:05.200Z,78
2023-01-03T09:39:12.221Z,78
2023-01-03T09:40:19.398Z,78
2023-01-03T09:41:26.485Z,78
2023-01-03T09:42:33.077Z,78
2023-01-03T09:45:54.332Z,78
2023-01-03T09:47:01.499Z,78
2023-01-03T09:48:08.089Z,78
2023-01-03T09:49:15.178Z,78
2023-01-03T09:50:44.478Z,78
2023-01-03T09:51:30.524Z,78
2023-01-03T09:52:36.533Z,78
2023-01-03T09:53:43.071Z,78
2023-01-03T09:54:50.211Z,78
2023-01-03T09:55:57.378Z,78
2023-01-03T09:57:04.327Z,78
2023-01-03T09:58:11.498Z,78
2023-01-03T09:59:18.061Z,78
2023-01-03T10:00:25.162Z,78
2023-01-03T10:01:32.505Z,78
2023-01-03T10:02:39.563Z,78
2023-01-03T10:03:51.510Z,78
2023-01-03T10:04:53.042Z,78
2023-01-03T10:06:00.240Z,78
2023-01-03T10:07:07.304Z,78
2023-01-03T10:08:14.455Z,78
2023-01-03T10:09:21.477Z,78
2023-01-03T10:10:28.073Z,78
2023-01-03T10:11:35.163Z,78
2023-01-03T10:12:42.243Z,78
2023-01-03T10:13:49.439Z,78
2023-01-03T10:14:56.491Z,78
2023-01-03T10:16:03.418Z,78
2023-01-03T10:17:10.215Z,78
2023-01-03T10:18:17.328Z,78
2023-01-03T10:19:24.390Z,78
2023-01-03T10:20:33.411Z,78
2023-01-03T10:21:38.123Z,78
2023-01-03T10:22:45.248Z,78
2023-01-03T10:23:52.258Z,78
2023-01-03T10:25:00.667Z,78
2023-01-03T10:27:13.103Z,78
2023-01-03T10:28:20.283Z,78
2023-01-03T10:29:27.308Z,78
2023-01-03T10:30:34.435Z,78
2023-01-03T10:31:41.057Z,78
2023-01-03T10:32:48.188Z,78
2023-01-03T10:35:02.309Z,78
2023-01-03T10:36:09.493Z,78
2023-01-03T10:37:16.653Z,79
2023-01-03T10:38:23.155Z,79
2023-01-03T10:39:30.228Z,79
2023-01-03T10:40:37.357Z,79
2023-01-03T10:41:44.426Z,79
2023-01-03T10:42:51.774Z,79
2023-01-03T10:43:58.079Z,79
2023-01-03T10:45:05.202Z,79
2023-01-03T10:46:12.364Z,80
2023-01-03T10:47:19.437Z,80
2023-01-03T10:48:26.053Z,80
2023-01-03T10:49:33.120Z,80
2023-01-03T10:50:40.292Z,80
2023-01-03T10:51:47.360Z,81
2023-01-03T10:52:54.488Z,81
2023-01-03T10:54:01.044Z,81
2023-01-03T10:55:08.148Z,81
2023-01-03T10:56:15.241Z,81
2023-01-03T10:57:22.317Z,81
2023-01-03T10:58:35.878Z,81
2023-01-03T10:59:36.063Z,82
2023-01-03T11:00:43.287Z,82
2023-01-03T11:01:50.634Z,82
2023-01-03T11:02:57.526Z,82
2023-01-03T11:04:04.462Z,82
2023-01-03T11:05:11.052Z,82
2023-01-03T11:06:18.194Z,82
2023-01-03T11:08:32.438Z,82
2023-01-03T11:09:38.933Z,82
2023-01-03T11:10:46.062Z,83
2023-01-03T11:13:00.375Z,83
2023-01-03T11:14:07.362Z,83
2023-01-03T11:15:14.507Z,83
2023-01-03T11:16:21.122Z,83
2023-01-03T11:17:28.242Z,83
2023-01-03T11:18:35.266Z,83
2023-01-03T11:19:42.457Z,83
2023-01-03T11:20:49.476Z,83
2023-01-03T11:21:56.061Z,83
2023-01-03T11:23:03.242Z,84
2023-01-03T11:24:10.336Z,84
2023-01-03T11:25:17.424Z,84
2023-01-03T11:26:24.502Z,84
2023-01-03T11:27:31.103Z,84
2023-01-03T11:28:38.210Z,84
2023-01-03T11:29:45.291Z,84
2023-01-03T11:30:52.459Z,84
2023-01-03T11:31:59.086Z,84
2023-01-03T11:33:06.125Z,84
2023-01-03T11:34:13.179Z,84
2023-01-03T11:35:23.972Z,84
2023-01-03T11:36:27.439Z,84
2023-01-03T11:38:41.170Z,84
2023-01-03T11:39:48.234Z,84
2023-01-03T11:40:55.317Z,84
2023-01-03T11:42:02.371Z,84
2023-01-03T11:43:09.027Z,84
2023-01-03T11:44:16.136Z,84
2023-01-03T11:45:23.194Z,84
2023-01-03T11:46:30.350Z,84
2023-01-03T11:47:37.470Z,84
2023-01-03T11:48:45.049Z,84
2023-01-03T11:49:51.276Z,84
2023-01-03T11:50:58.231Z,84
2023-01-03T11:52:05.326Z,84
2023-01-03T11:53:12.440Z,84
2023-01-03T11:54:19.023Z,84
2023-01-03T11:55:26.114Z,84
2023-01-03T11:56:33.232Z,84
2023-01-03T11:57:40.346Z,84
2023-01-03T11:58:47.435Z,84
2023-01-03T11:59:54.504Z,84
2023-01-03T12:01:01.097Z,84
2023-01-03T12:02:08.378Z,85
2023-01-03T12:03:15.478Z,85
2023-01-03T12:04:22.500Z,85
2023-01-03T12:05:29.042Z,85
2023-01-03T12:06:36.165Z,85
2023-01-03T12:07:48.298Z,85
2023-01-03T12:08:50.321Z,85
2023-01-03T12:09:57.467Z,86
2023-01-03T12:11:04.026Z,85
2023-01-03T12:12:11.167Z,85
2023-01-03T12:13:21.459Z,85
2023-01-03T12:14:25.331Z,85
2023-01-03T12:15:32.457Z,85
2023-01-03T12:16:39.143Z,85
2023-01-03T12:17:46.223Z,85
2023-01-03T12:18:53.289Z,85
2023-01-03T12:20:00.380Z,85
2023-01-03T12:21:07.537Z,84
2023-01-03T12:22:14.060Z,85
2023-01-03T12:23:21.264Z,85
2023-01-03T12:24:28.302Z,85
2023-01-03T12:25:35.369Z,85
2023-01-03T12:26:42.437Z,85
2023-01-03T12:27:49.072Z,84
2023-01-03T12:28:56.257Z,85
2023-01-03T12:31:10.439Z,85
2023-01-03T12:32:17.534Z,85
2023-01-03T12:33:24.011Z,85
2023-01-03T12:34:31.269Z,85
2023-01-03T12:35:38.330Z,85
2023-01-03T12:36:45.392Z,85
2023-01-03T12:37:52.479Z,85
2023-01-03T12:38:59.108Z,85
2023-01-03T12:42:20.427Z,85
2023-01-03T12:43:27.503Z,85
2023-01-03T12:44:34.074Z,85
2023-01-03T12:45:41.214Z,85
2023-01-03T12:46:48.360Z,85
2023-01-03T12:47:55.381Z,85
2023-01-03T12:49:01.956Z,85
2023-01-03T12:50:09.102Z,85
2023-01-03T12:51:16.200Z,85
2023-01-03T12:52:23.259Z,85
2023-01-03T12:53:30.497Z,85
2023-01-03T12:54:37.025Z,85
2023-01-03T12:55:44.132Z,85
2023-01-03T12:56:51.184Z,84
2023-01-03T12:57:58.284Z,84
2023-01-03T12:59:05.392Z,84
2023-01-03T13:00:11.999Z,84
2023-01-03T13:01:19.301Z,84
2023-01-03T13:02:26.359Z,84
2023-01-03T13:03:33.499Z,84
2023-01-03T13:04:40.465Z,84
2023-01-03T13:05:47.035Z,84
2023-01-03T13:06:54.159Z,84
2023-01-03T13:08:01.246Z,84
2023-01-03T13:09:08.308Z,84
2023-01-03T13:10:15.399Z,84
2023-01-03T13:12:29.094Z,84
2023-01-03T13:13:36.274Z,84
2023-01-03T13:14:43.311Z,84
2023-01-03T13:15:50.608Z,84
2023-01-03T13:16:57.049Z,84
2023-01-03T13:18:04.236Z,84
2023-01-03T13:19:11.203Z,84
2023-01-03T13:20:18.355Z,84
2023-01-03T13:21:25.429Z,84
2023-01-03T13:22:31.985Z,84
2023-01-03T13:23:39.213Z,84
2023-01-03T13:24:46.247Z,84
2023-01-03T13:25:53.326Z,84
2023-01-03T13:27:00.436Z,84
2023-01-03T13:28:07.067Z,84
2023-01-03T13:29:14.108Z,84
2023-01-03T13:30:21.278Z,84
2023-01-03T13:31:28.397Z,84
2023-01-03T13:32:38.404Z,84
2023-01-03T13:33:42.042Z,84
2023-01-03T13:34:49.183Z,84
2023-01-03T13:35:56.224Z,84
2023-01-03T13:37:03.302Z,84
2023-01-03T13:38:10.532Z,84
2023-01-03T13:39:17.096Z,84
2023-01-03T13:40:34.658Z,84
2023-01-03T13:41:31.297Z,84
2023-01-03T13:42:38.509Z,84
2023-01-03T13:43:45.437Z,84
2023-01-03T13:45:59.183Z,84
2023-01-03T13:47:06.316Z,84
2023-01-03T13:48:13.432Z,84
2023-01-03T13:49:20.477Z,84
2023-01-03T13:50:27.112Z,84
2023-01-03T13:51:34.128Z,84
2023-01-03T13:53:48.402Z,84
2023-01-03T13:54:55.021Z,84
2023-01-03T13:56:02.042Z,84
2023-01-03T13:57:09.160Z,84
2023-01-03T13:58:16.321Z,84
2023-01-03T13:59:23.352Z,84
2023-01-03T14:00:30.533Z,84
2023-01-03T14:01:37.192Z,84
2023-01-03T14:02:44.352Z,84
2023-01-03T14:03:51.332Z,84
2023-01-03T14:05:01.330Z,84
2023-01-03T14:06:05.105Z,84
2023-01-03T14:07:12.075Z,84
2023-01-03T14:09:26.331Z,84
2023-01-03T14:10:33.433Z,84
2023-01-03T14:11:40.039Z,84
2023-01-03T14:12:47.146Z,84
2023-01-03T14:13:54.176Z,84
2023-01-03T14:15:01.345Z,84
2023-01-03T14:16:08.434Z,84
2023-01-03T14:17:14.955Z,84
2023-01-03T14:18:22.058Z,84
2023-01-03T14:19:29.185Z,84
2023-01-03T14:20:36.362Z,84
2023-01-03T14:21:43.408Z,84
2023-01-03T14:22:50.610Z,84
2023-01-03T14:24:00.228Z,84
2023-01-03T14:25:04.205Z,84
2023-01-03T14:26:11.325Z,84
2023-01-03T14:27:18.431Z,84
2023-01-03T14:28:25.015Z,84
2023-01-03T14:29:32.111Z,84
2023-01-03T14:30:39.234Z,84
2023-01-03T14:31:46.372Z,84
2023-01-03T14:32:53.441Z,84
2023-01-03T14:35:07.128Z,84
2023-01-03T14:36:14.213Z,84
2023-01-03T14:37:21.345Z,84
2023-01-03T14:38:28.425Z,84
2023-01-03T14:40:42.292Z,84
2023-01-03T14:41:49.272Z,84
2023-01-03T14:42:56.368Z,84
2023-01-03T14:44:03.423Z,84
2023-01-03T14:45:11.054Z,84
2023-01-03T14:46:17.159Z,84
2023-01-03T14:47:24.228Z,84
2023-01-03T14:49:38.426Z,84
2023-01-03T14:50:45.025Z,84
2023-01-03T14:51:52.135Z,84
2023-01-03T14:52:59.284Z,84
2023-01-03T14:54:06.313Z,84
2023-01-03T14:55:13.464Z,84
2023-01-03T14:56:20.078Z,84
2023-01-03T14:57:27.188Z,84
2023-01-03T14:58:34.211Z,84
2023-01-03T14:59:41.376Z,84
2023-01-03T15:00:48.578Z,84
2023-01-03T15:01:55.218Z,84
2023-01-03T15:03:02.529Z,84
2023-01-03T15:04:09.301Z,84
2023-01-03T15:05:16.491Z,84
2023-01-03T15:06:23.496Z,84
2023-01-03T15:07:31.124Z,84
2023-01-03T15:08:37.180Z,84
2023-01-03T15:09:44.266Z,84
2023-01-03T15:10:51.389Z,84
2023-01-03T15:11:58.504Z,84
2023-01-03T15:13:05.375Z,84
2023-01-03T15:14:12.128Z,84
2023-01-03T15:16:26.553Z,84
2023-01-03T15:17:33.460Z,84
2023-01-03T15:18:40.115Z,84
2023-01-03T15:19:47.146Z,84
2023-01-03T15:20:54.277Z,84
2023-01-03T15:22:01.401Z,84
2023-01-03T15:23:08.485Z,84
2023-01-03T15:24:15.048Z,84
2023-01-03T15:25:22.190Z,84
2023-01-03T15:26:29.332Z,84
2023-01-03T15:27:36.386Z,84
2023-01-03T15:28:43.046Z,84
2023-01-03T15:29:50.117Z,84
2023-01-03T15:30:57.169Z,84
2023-01-03T15:32:04.367Z,84
2023-01-03T15:33:10.940Z,84
2023-01-03T15:34:18.492Z,84
2023-01-03T15:35:25.054Z,84
2023-01-03T15:37:39.349Z,84
2023-01-03T15:38:46.491Z,84
2023-01-03T15:39:53.029Z,84
2023-01-03T15:41:00.160Z,84
2023-01-03T15:42:42.433Z,84
2023-01-03T15:43:14.283Z,84
2023-01-03T15:44:21.446Z,84
2023-01-03T15:45:28.027Z,84
2023-01-03T15:46:35.067Z,84
2023-01-03T15:47:42.232Z,84
2023-01-03T15:48:49.358Z,84
2023-01-03T15:49:56.432Z,84
2023-01-03T15:51:02.961Z,84
2023-01-03T15:53:17.313Z,84
2023-01-03T15:54:24.335Z,84
2023-01-03T15:55:31.492Z,84
2023-01-03T15:57:45.124Z,84
2023-01-03T15:58:52.291Z,84
2023-01-03T15:59:59.445Z,84
2023-01-03T16:01:06.593Z,84
2023-01-03T16:02:13.323Z,84
2023-01-03T16:03:20.306Z,84
2023-01-03T16:04:27.227Z,84
2023-01-03T16:05:34.341Z,85
2023-01-03T16:06:41.453Z,85
2023-01-03T16:07:47.998Z,85
2023-01-03T16:08:55.203Z,85
2023-01-03T16:10:02.265Z,85
2023-01-03T16:11:09.916Z,85
2023-01-03T16:12:16.477Z,85
2023-01-03T16:13:24.087Z,85
2023-01-03T16:14:30.173Z,85
2023-01-03T16:15:37.230Z,85
2023-01-03T16:16:44.417Z,85
2023-01-03T16:17:51.591Z,85
2023-01-03T16:18:58.657Z,85
2023-01-03T16:20:05.162Z,85
2023-01-03T16:21:12.241Z,85
2023-01-03T16:22:35.380Z,85
2023-01-03T16:23:26.516Z,85
2023-01-03T16:24:33.058Z,85
2023-01-03T16:25:40.191Z,85
2023-01-03T16:26:47.273Z,85
2023-01-03T16:27:54.448Z,85
2023-01-03T16:29:01.528Z,85
2023-01-03T16:30:08.183Z,85
2023-01-03T16:31:23.530Z,85
2023-01-03T16:32:22.391Z,85
2023-01-03T16:33:29.504Z,85
2023-01-03T16:34:36.474Z,85
2023-01-03T16:35:43.022Z,85
2023-01-03T16:36:50.192Z,85
2023-01-03T16:37:57.350Z,85
2023-01-03T16:39:06.252Z,85